createdAt,value
2023-02-12T00:01:41.272Z,100476.90
2023-02-12T00:04:09.590Z,100483.50
2023-02-12T00:06:40.125Z,100485.17
2023-02-12T00:09:08.345Z,100484.77
2023-02-12T00:11:38.014Z,100486.10
2023-02-12T00:14:06.447Z,100488.14
2023-02-12T00:16:38.671Z,100485.64
2023-02-12T00:19:09.573Z,100495.02
2023-02-12T00:21:38.362Z,100491.95
2023-02-12T00:24:06.892Z,100496.05
2023-02-12T00:26:35.861Z,100492.88
2023-02-12T00:29:04.332Z,100498.33
2023-02-12T00:31:33.198Z,100504.09
2023-02-12T00:34:01.482Z,100504.67
2023-02-12T00:36:30.789Z,100505.37
2023-02-12T00:38:59.595Z,100510.96
2023-02-12T00:41:28.108Z,100512.20
2023-02-12T00:43:56.928Z,100521.88
2023-02-12T00:46:25.580Z,100530.62
2023-02-12T00:48:55.374Z,100527.20
2023-02-12T00:51:23.977Z,100527.55
2023-02-12T00:53:53.172Z,100533.98
2023-02-12T00:56:21.389Z,100536.41
2023-02-12T00:58:50.978Z,100536.24
2023-02-12T01:01:19.324Z,100538.39
2023-02-12T01:03:48.283Z,100536.77
2023-02-12T01:06:16.578Z,100543.26
2023-02-12T01:08:44.954Z,100546.30
2023-02-12T01:11:13.985Z,100551.86
2023-02-12T01:13:44.500Z,100547.27
2023-02-12T01:16:21.075Z,100556.58
2023-02-12T01:18:53.122Z,100558.38
2023-02-12T01:21:25.865Z,100562.54
2023-02-12T01:23:54.220Z,100563.70
2023-02-12T01:26:22.667Z,100571.23
2023-02-12T01:28:54.025Z,100573.12
2023-02-12T01:31:24.165Z,100576.69
2023-02-12T01:33:54.732Z,100583.09
2023-02-12T01:36:23.227Z,100590.41
2023-02-12T01:38:51.834Z,100594.96
2023-02-12T01:41:24.672Z,100607.22
2023-02-12T01:44:26.307Z,100603.36
2023-02-12T01:47:00.849Z,100611.30
2023-02-12T01:49:34.033Z,100613.67
2023-02-12T01:52:07.177Z,100627.21
2023-02-12T01:54:36.177Z,100638.95
2023-02-12T01:57:05.523Z,100634.05
2023-02-12T01:59:35.707Z,100641.49
2023-02-12T02:02:05.562Z,100647.86
2023-02-12T02:04:42.420Z,100656.23
2023-02-12T02:07:12.778Z,100659.38
2023-02-12T02:09:41.731Z,100672.52
2023-02-12T02:12:28.867Z,100671.24
2023-02-12T02:15:00.181Z,100674.59
2023-02-12T02:17:53.840Z,100676.93
2023-02-12T02:20:47.430Z,100689.26
2023-02-12T02:23:57.436Z,100692.92
2023-02-12T02:26:41.006Z,100710.70
2023-02-12T02:29:27.671Z,100714.64
2023-02-12T02:32:25.982Z,100725.02
2023-02-12T02:35:02.197Z,100730.29
2023-02-12T02:37:39.669Z,100736.55
2023-02-12T02:40:21.201Z,100736.45
2023-02-12T02:42:52.628Z,100747.67
2023-02-12T02:45:36.765Z,100750.36
2023-02-12T02:48:08.316Z,100757.59
2023-02-12T02:50:38.589Z,100766.02
2023-02-12T02:53:10.452Z,100778.69
2023-02-12T02:55:42.816Z,100781.23
2023-02-12T02:58:14.965Z,100804.08
2023-02-12T03:00:47.538Z,100795.17
2023-02-12T03:03:16.144Z,100818.81
2023-02-12T03:05:47.486Z,100834.84
2023-02-12T03:08:24.428Z,100846.56
2023-02-12T03:11:01.214Z,100840.22
2023-02-12T03:13:36.931Z,100849.81
2023-02-12T03:16:10.014Z,100853.66
2023-02-12T03:18:44.480Z,100871.26
2023-02-12T03:21:15.273Z,100880.52
2023-02-12T03:23:54.791Z,100891.95
2023-02-12T03:26:26.172Z,100892.83
2023-02-12T03:28:54.848Z,100896.47
2023-02-12T03:31:26.161Z,100907.98
2023-02-12T03:34:16.693Z,100912.75
2023-02-12T03:37:05.405Z,100916.91
2023-02-12T03:39:50.178Z,100924.05
2023-02-12T03:42:42.054Z,100935.61
2023-02-12T03:45:22.914Z,100945.92
2023-02-12T03:48:09.313Z,100952.83
2023-02-12T03:50:46.873Z,100956.48
2023-02-12T03:53:15.948Z,100968.46
2023-02-12T03:55:45.911Z,100976.70
2023-02-12T03:58:17.859Z,100975.39
2023-02-12T04:00:46.206Z,100983.83
2023-02-12T04:03:14.724Z,100992.11
2023-02-12T04:05:43.212Z,101006.16
2023-02-12T04:08:11.919Z,101001.23
2023-02-12T04:10:47.370Z,101008.23
2023-02-12T04:13:21.876Z,101011.17
2023-02-12T04:15:58.511Z,101023.45
2023-02-12T04:18:40.866Z,101038.23
2023-02-12T04:21:39.702Z,101042.45
2023-02-12T04:24:39.765Z,101047.48
2023-02-12T04:27:26.758Z,101056.73
2023-02-12T04:29:59.337Z,101073.19
2023-02-12T04:32:40.243Z,101083.59
2023-02-12T04:35:28.339Z,101090.77
2023-02-12T04:38:10.433Z,101091.45
2023-02-12T04:40:39.697Z,101098.64
2023-02-12T04:43:08.402Z,101097.91
2023-02-12T04:45:37.193Z,101103.30
2023-02-12T04:48:05.990Z,101106.60
2023-02-12T04:50:42.756Z,101109.94
2023-02-12T04:53:11.027Z,101107.76
2023-02-12T04:55:39.863Z,101116.98
2023-02-12T04:58:08.209Z,101124.73
2023-02-12T05:00:37.085Z,101132.61
2023-02-12T05:03:05.582Z,101143.50
2023-02-12T05:05:35.682Z,101128.77
2023-02-12T05:08:03.999Z,101147.06
2023-02-12T05:10:32.695Z,101158.23
2023-02-12T05:13:07.040Z,101164.77
2023-02-12T05:15:39.810Z,101182.58
2023-02-12T05:18:08.161Z,101185.31
2023-02-12T05:20:37.707Z,101185.83
2023-02-12T05:23:06.389Z,101193.29
2023-02-12T05:25:35.130Z,101197.30
2023-02-12T05:28:03.448Z,101203.67
2023-02-12T05:30:31.897Z,101208.37
2023-02-12T05:33:00.605Z,101223.91
2023-02-12T05:35:28.769Z,101221.02
2023-02-12T05:37:57.312Z,101230.02
2023-02-12T05:40:25.864Z,101231.33
2023-02-12T05:42:54.382Z,101235.88
2023-02-12T05:45:28.099Z,101239.14
2023-02-12T05:47:57.081Z,101242.81
2023-02-12T05:50:25.428Z,101253.37
2023-02-12T05:53:01.633Z,101258.48
2023-02-12T05:55:30.279Z,101265.11
2023-02-12T05:57:59.060Z,101267.38
2023-02-12T06:00:27.637Z,101269.77
2023-02-12T06:02:56.392Z,101265.40
2023-02-12T06:05:24.723Z,101263.44
2023-02-12T06:07:53.362Z,101277.19
2023-02-12T06:10:21.591Z,101285.73
2023-02-12T06:12:54.615Z,101299.69
2023-02-12T06:15:23.118Z,101294.88
2023-02-12T06:17:51.802Z,101300.51
2023-02-12T06:20:20.659Z,101311.51
2023-02-12T06:22:49.187Z,101314.13
2023-02-12T06:25:17.528Z,101317.33
2023-02-12T06:27:46.664Z,101315.66
2023-02-12T06:30:15.678Z,101317.21
2023-02-12T06:32:44.560Z,101326.16
2023-02-12T06:35:12.828Z,101324.11
2023-02-12T06:37:41.326Z,101323.40
2023-02-12T06:40:10.041Z,101322.60
2023-02-12T06:42:38.259Z,101330.30
2023-02-12T06:45:07.117Z,101328.09
2023-02-12T06:47:35.346Z,101348.30
2023-02-12T06:50:03.806Z,101336.84
2023-02-12T06:52:32.277Z,101343.63
2023-02-12T06:55:00.861Z,101356.53
2023-02-12T06:57:30.140Z,101357.11
2023-02-12T07:00:00.625Z,101362.78
2023-02-12T07:02:29.026Z,101372.19
2023-02-12T07:04:57.469Z,101369.80
2023-02-12T07:07:25.759Z,101365.79
2023-02-12T07:09:53.996Z,101366.98
2023-02-12T07:12:27.658Z,101373.81
2023-02-12T07:14:56.412Z,101376.67
2023-02-12T07:17:25.116Z,101377.04
2023-02-12T07:19:53.762Z,101392.05
2023-02-12T07:22:22.407Z,101393.32
2023-02-12T07:24:50.695Z,101385.34
2023-02-12T07:27:19.158Z,101395.96
2023-02-12T07:29:47.667Z,101402.21
2023-02-12T07:32:16.283Z,101415.05
2023-02-12T07:34:44.988Z,101420.02
2023-02-12T07:37:13.798Z,101420.23
2023-02-12T07:39:43.406Z,101406.89
2023-02-12T07:42:15.372Z,101415.04
2023-02-12T07:44:46.726Z,101418.37
2023-02-12T07:47:18.395Z,101431.99
2023-02-12T07:49:47.302Z,101426.80
2023-02-12T07:52:16.466Z,101417.27
2023-02-12T07:54:46.096Z,101437.70
2023-02-12T07:57:14.451Z,101444.55
2023-02-12T07:59:43.181Z,101447.17
2023-02-12T08:02:11.788Z,101455.77
2023-02-12T08:04:41.751Z,101451.44
2023-02-12T08:07:09.994Z,101451.81
2023-02-12T08:09:39.111Z,101443.77
2023-02-12T08:12:07.720Z,101452.76
2023-02-12T08:28:03.053Z,101469.09
2023-02-12T08:30:32.329Z,101471.10
2023-02-12T08:33:02.075Z,101475.87
2023-02-12T08:35:30.534Z,101478.25
2023-02-12T08:37:59.598Z,101480.66
2023-02-12T08:40:27.911Z,101485.73
2023-02-12T08:42:56.634Z,101492.04
2023-02-12T08:45:24.906Z,101490.81
2023-02-12T08:47:53.846Z,101502.08
2023-02-12T08:50:22.095Z,101488.02
2023-02-12T08:52:50.419Z,101499.17
2023-02-12T08:55:21.451Z,101516.60
2023-02-12T08:57:50.085Z,101516.13
2023-02-12T09:00:19.435Z,101507.23
2023-02-12T09:02:48.842Z,101528.88
2023-02-12T09:05:17.352Z,101542.08
2023-02-12T09:07:47.147Z,101525.04
2023-02-12T09:10:15.905Z,101530.98
2023-02-12T09:12:44.997Z,101524.67
2023-02-12T09:15:13.550Z,101543.67
2023-02-12T09:17:43.944Z,101543.75
2023-02-12T09:20:12.856Z,101545.13
2023-02-12T09:22:41.137Z,101545.71
2023-02-12T09:25:10.889Z,101541.88
2023-02-12T09:27:39.146Z,101554.91
2023-02-12T09:30:09.133Z,101543.10
2023-02-12T09:32:37.376Z,101534.92
2023-02-12T09:35:07.613Z,101549.04
2023-02-12T09:37:44.785Z,101544.07
2023-02-12T09:40:36.240Z,101538.58
2023-02-12T09:43:10.903Z,101546.09
2023-02-12T09:46:04.404Z,101554.10
2023-02-12T09:48:54.253Z,101552.58
2023-02-12T09:51:22.830Z,101543.46
2023-02-12T09:53:51.390Z,101541.00
2023-02-12T09:56:21.545Z,101547.89
2023-02-12T09:59:00.924Z,101547.10
2023-02-12T10:01:29.800Z,101537.05
2023-02-12T10:04:02.219Z,101539.05
2023-02-12T10:06:37.558Z,101552.66
2023-02-12T10:09:07.139Z,101547.58
2023-02-12T10:11:56.787Z,101541.80
2023-02-12T10:14:46.218Z,101533.17
2023-02-12T10:17:34.243Z,101533.55
2023-02-12T10:20:16.376Z,101534.64
2023-02-12T10:22:57.196Z,101537.38
2023-02-12T10:25:30.822Z,101547.14
2023-02-12T10:39:27.749Z,101547.09
2023-02-12T10:42:12.171Z,101540.92
2023-02-12T10:44:41.257Z,101539.56
2023-02-12T10:47:22.999Z,101547.95
2023-02-12T10:49:56.695Z,101545.89
2023-02-12T10:52:30.992Z,101542.94
2023-02-12T10:54:59.300Z,101552.36
2023-02-12T10:57:29.985Z,101555.36
2023-02-12T11:00:26.372Z,101561.83
2023-02-12T11:03:02.115Z,101571.23
2023-02-12T11:05:31.518Z,101569.17
2023-02-12T11:07:59.789Z,101580.33
2023-02-12T11:10:28.816Z,101581.18
2023-02-12T11:12:59.020Z,101583.21
2023-02-12T11:15:31.599Z,101590.22
2023-02-12T11:18:04.424Z,101591.46
2023-02-12T11:20:42.013Z,101593.30
2023-02-12T11:36:59.567Z,101588.49
2023-02-12T11:39:29.025Z,101585.73
2023-02-12T11:41:59.961Z,101579.26
2023-02-12T11:44:36.499Z,101577.48
2023-02-12T11:59:42.643Z,101592.48
2023-02-12T12:02:25.409Z,101587.60
2023-02-12T12:04:54.758Z,101585.00
2023-02-12T12:07:28.103Z,101585.04
2023-02-12T12:10:15.253Z,101591.17
2023-02-12T12:12:48.191Z,101589.54
2023-02-12T12:15:44.152Z,101589.48
2023-02-12T12:18:44.094Z,101584.54
2023-02-12T12:21:31.714Z,101583.89
2023-02-12T12:24:03.990Z,101583.91
2023-02-12T12:26:33.978Z,101587.55
2023-02-12T12:29:06.244Z,101581.52
2023-02-12T12:31:37.496Z,101586.31
2023-02-12T12:34:16.636Z,101594.80
2023-02-12T12:36:51.887Z,101596.05
2023-02-12T12:39:42.231Z,101593.53
2023-02-12T12:42:31.292Z,101595.88
2023-02-12T12:45:09.308Z,101598.56
2023-02-12T12:47:58.105Z,101602.73
2023-02-12T12:50:50.201Z,101607.98
2023-02-12T12:53:23.176Z,101604.52
2023-02-12T12:56:25.949Z,101597.92
2023-02-12T12:59:30.845Z,101604.44
2023-02-12T13:02:29.154Z,101602.13
2023-02-12T13:05:20.426Z,101597.59
2023-02-12T13:08:18.025Z,101608.30
2023-02-12T13:10:57.811Z,101608.73
2023-02-12T13:13:31.574Z,101609.48
2023-02-12T13:16:29.715Z,101611.25
2023-02-12T13:31:53.582Z,101636.20
2023-02-12T13:34:22.089Z,101636.17
2023-02-12T13:50:37.672Z,101655.13
2023-02-12T13:53:40.148Z,101663.64
2023-02-12T13:56:31.605Z,101665.45
2023-02-12T14:10:22.641Z,101683.21
2023-02-12T14:12:50.073Z,101692.46
2023-02-12T14:15:31.251Z,101701.90
2023-02-12T14:18:07.560Z,101705.77
2023-02-12T14:20:36.373Z,101705.05
2023-02-12T14:23:24.168Z,101707.85
2023-02-12T14:37:37.793Z,101709.96
2023-02-12T14:40:43.277Z,101698.89
2023-02-12T14:43:56.258Z,101706.41
2023-02-12T14:46:24.838Z,101714.46
2023-02-12T14:48:59.586Z,101730.28
2023-02-12T14:51:47.092Z,101739.90
2023-02-12T14:54:19.304Z,101739.13
2023-02-12T14:56:49.085Z,101737.08
2023-02-12T14:59:21.475Z,101741.05
2023-02-12T15:01:51.421Z,101747.65
2023-02-12T15:04:28.048Z,101749.69
2023-02-12T15:07:10.704Z,101751.03
2023-02-12T15:10:02.999Z,101764.88
2023-02-12T15:12:35.987Z,101765.73
2023-02-12T15:15:15.542Z,101767.33
2023-02-12T15:17:51.692Z,101772.73
2023-02-12T15:20:21.418Z,101783.61
2023-02-12T15:22:49.997Z,101786.23
2023-02-12T15:25:25.451Z,101786.70
2023-02-12T15:28:27.632Z,101797.88
2023-02-12T15:30:56.231Z,101793.58
2023-02-12T15:33:35.408Z,101802.49
2023-02-12T15:36:03.850Z,101801.79
2023-02-12T15:38:36.702Z,101809.45
2023-02-12T15:41:05.883Z,101801.03
2023-02-12T15:43:35.619Z,101804.15
2023-02-12T15:46:06.547Z,101808.39
2023-02-12T15:48:36.107Z,101811.73
2023-02-12T15:51:34.449Z,101816.20
2023-02-12T15:54:05.844Z,101828.89
2023-02-12T15:56:34.155Z,101833.66
2023-02-12T15:59:04.508Z,101840.04
2023-02-12T16:01:35.396Z,101837.21
2023-02-12T16:04:07.476Z,101837.55
2023-02-12T16:06:37.025Z,101834.80
2023-02-12T16:09:14.530Z,101840.16
2023-02-12T16:11:45.474Z,101850.98
2023-02-12T16:14:22.990Z,101847.77
2023-02-12T16:16:54.954Z,101847.76
2023-02-12T16:19:25.822Z,101852.59
2023-02-12T16:22:04.385Z,101850.73
2023-02-12T16:24:46.741Z,101845.70
2023-02-12T16:27:19.075Z,101850.19
2023-02-12T16:29:55.443Z,101854.31
2023-02-12T16:32:37.618Z,101856.02
2023-02-12T16:35:23.533Z,101857.28
2023-02-12T16:37:56.634Z,101863.33
2023-02-12T16:40:27.287Z,101868.17
2023-02-12T16:42:57.216Z,101866.86
2023-02-12T16:45:28.619Z,101874.70
2023-02-12T16:48:11.655Z,101868.11
2023-02-12T16:50:46.372Z,101877.80
2023-02-12T16:53:27.463Z,101876.32
2023-02-12T16:55:55.992Z,101880.34
2023-02-12T16:58:26.107Z,101884.40
2023-02-12T17:00:55.699Z,101883.08
2023-02-12T17:03:24.959Z,101887.27
2023-02-12T17:05:54.761Z,101887.06
2023-02-12T17:08:24.402Z,101885.29
2023-02-12T17:10:52.867Z,101883.73
2023-02-12T17:13:23.782Z,101885.13
2023-02-12T17:15:55.665Z,101879.02
2023-02-12T17:18:24.311Z,101882.98
2023-02-12T17:20:57.027Z,101890.59
2023-02-12T17:23:25.289Z,101897.97
2023-02-12T17:25:54.171Z,101895.59
2023-02-12T17:28:23.312Z,101905.38
2023-02-12T17:30:53.086Z,101907.19
2023-02-12T17:33:22.976Z,101913.98
2023-02-12T17:35:51.656Z,101919.63
2023-02-12T17:38:20.523Z,101919.44
2023-02-12T17:40:50.460Z,101921.06
2023-02-12T17:43:20.099Z,101923.02
2023-02-12T17:45:48.370Z,101923.87
2023-02-12T17:48:17.853Z,101923.92
2023-02-12T17:50:46.442Z,101928.80
2023-02-12T17:53:15.176Z,101932.00
2023-02-12T17:55:44.393Z,101930.84
2023-02-12T17:58:13.043Z,101930.27
2023-02-12T18:00:41.607Z,101933.94
2023-02-12T18:03:11.213Z,101935.23
2023-02-12T18:05:43.078Z,101936.95
2023-02-12T18:08:11.665Z,101932.27
2023-02-12T18:10:43.525Z,101937.63
2023-02-12T18:13:14.366Z,101936.95
2023-02-12T18:15:43.736Z,101936.40
2023-02-12T18:18:12.370Z,101940.27
2023-02-12T18:20:41.251Z,101947.80
2023-02-12T18:23:11.475Z,101948.50
2023-02-12T18:25:44.160Z,101956.70
2023-02-12T18:28:12.661Z,101967.51
2023-02-12T18:30:43.844Z,101967.86
2023-02-12T18:33:12.627Z,101970.14
2023-02-12T18:35:42.093Z,101973.89
2023-02-12T18:38:12.103Z,101977.11
2023-02-12T18:40:41.629Z,101979.61
2023-02-12T18:43:09.868Z,101978.91
2023-02-12T18:45:39.964Z,101981.63
2023-02-12T18:48:09.640Z,101983.06
2023-02-12T18:50:38.425Z,101985.00
2023-02-12T18:53:06.955Z,101977.70
2023-02-12T18:55:37.904Z,101980.29
2023-02-12T18:58:06.235Z,101978.64
2023-02-12T19:00:34.914Z,101980.44
2023-02-12T19:03:03.700Z,101984.48
2023-02-12T19:05:32.902Z,101985.61
2023-02-12T19:08:01.599Z,101978.86
2023-02-12T19:10:30.323Z,101980.92
2023-02-12T19:12:59.527Z,101977.68
2023-02-12T19:15:32.894Z,101975.77
2023-02-12T19:18:01.455Z,101966.26
2023-02-12T19:20:29.936Z,101961.77
2023-02-12T19:22:58.515Z,101959.73
2023-02-12T19:25:27.004Z,101957.52
2023-02-12T19:27:55.813Z,101951.85
2023-02-12T19:30:24.586Z,101954.39
2023-02-12T19:32:53.953Z,101955.77
2023-02-12T19:35:22.374Z,101957.00
2023-02-12T19:37:53.829Z,101958.30
2023-02-12T19:40:22.619Z,101955.08
2023-02-12T19:42:50.902Z,101952.92
2023-02-12T19:45:19.586Z,101948.27
2023-02-12T19:47:48.071Z,101945.40
2023-02-12T19:50:16.863Z,101948.34
2023-02-12T19:52:45.554Z,101944.44
2023-02-12T19:55:15.451Z,101947.94
2023-02-12T19:57:43.833Z,101941.89
2023-02-12T20:00:13.623Z,101936.10
2023-02-12T20:02:46.025Z,101936.73
2023-02-12T20:05:14.761Z,101936.66
2023-02-12T20:07:45.465Z,101940.95
2023-02-12T20:10:13.956Z,101940.50
2023-02-12T20:12:42.288Z,101939.29
2023-02-12T20:15:15.315Z,101939.40
2023-02-12T20:17:44.036Z,101944.09
2023-02-12T20:20:12.844Z,101943.69
2023-02-12T20:22:43.001Z,101951.59
2023-02-12T20:25:12.491Z,101950.38
2023-02-12T20:27:41.777Z,101951.69
2023-02-12T20:30:10.728Z,101952.59
2023-02-12T20:32:39.028Z,101947.31
2023-02-12T20:35:07.549Z,101942.10
2023-02-12T20:37:36.280Z,101943.14
2023-02-12T20:40:05.518Z,101946.36
2023-02-12T20:42:34.058Z,101949.38
2023-02-12T20:45:02.576Z,101952.78
2023-02-12T20:47:31.324Z,101951.39
2023-02-12T20:50:00.362Z,101955.22
2023-02-12T20:52:28.917Z,101954.32
2023-02-12T20:54:58.124Z,101955.39
2023-02-12T20:57:26.709Z,101959.36
2023-02-12T20:59:55.598Z,101962.58
2023-02-12T21:02:23.872Z,101965.40
2023-02-12T21:04:52.461Z,101973.95
2023-02-12T21:07:22.374Z,101974.71
2023-02-12T21:09:50.652Z,101973.02
2023-02-12T21:12:20.473Z,101971.95
2023-02-12T21:14:49.461Z,101967.45
2023-02-12T21:17:20.766Z,101966.23
2023-02-12T21:19:48.968Z,101974.25
2023-02-12T21:22:17.987Z,101969.73
2023-02-12T21:24:46.467Z,101978.00
2023-02-12T21:27:14.948Z,101977.56
2023-02-12T21:29:43.357Z,101979.16
2023-02-12T21:32:12.882Z,101983.27
2023-02-12T21:34:42.138Z,101984.08
2023-02-12T21:37:10.725Z,101991.27
2023-02-12T21:39:40.036Z,101999.65
2023-02-12T21:42:08.517Z,102002.11
2023-02-12T21:44:39.131Z,101999.20
2023-02-12T21:47:08.978Z,101995.63
2023-02-12T21:49:37.158Z,101993.50
2023-02-12T21:52:06.943Z,101992.14
2023-02-12T21:54:35.648Z,101986.63
2023-02-12T21:57:04.125Z,101993.73
2023-02-12T21:59:32.719Z,101993.02
2023-02-12T22:02:02.425Z,101992.92
2023-02-12T22:04:33.664Z,101996.22
2023-02-12T22:07:03.767Z,101995.02
2023-02-12T22:09:35.545Z,101996.83
2023-02-12T22:12:05.192Z,101993.94
2023-02-12T22:14:34.377Z,101991.67
2023-02-12T22:17:05.088Z,101978.25
2023-02-12T22:19:35.012Z,101980.80
2023-02-12T22:22:03.798Z,101973.83
2023-02-12T22:24:32.809Z,101977.90
2023-02-12T22:27:01.010Z,101983.01
2023-02-12T22:29:29.723Z,101985.04
2023-02-12T22:31:58.001Z,101990.38
2023-02-12T22:34:26.313Z,101989.73
2023-02-12T22:36:54.701Z,101988.85
2023-02-12T22:39:23.280Z,101981.31
2023-02-12T22:41:51.760Z,101985.25
2023-02-12T22:44:21.285Z,101988.15
2023-02-12T22:46:50.567Z,101997.35
2023-02-12T22:49:19.574Z,102001.86
2023-02-12T22:51:47.950Z,101998.93
2023-02-12T22:54:17.647Z,101997.21
2023-02-12T22:56:45.952Z,101999.73
2023-02-12T22:59:14.273Z,101996.61
2023-02-12T23:01:45.368Z,101994.02
2023-02-12T23:04:17.994Z,101993.59
2023-02-12T23:06:46.642Z,101994.20
2023-02-12T23:09:17.907Z,101995.35
2023-02-12T23:11:46.974Z,101996.36
2023-02-12T23:14:17.784Z,101995.20
2023-02-12T23:16:46.666Z,101986.55
2023-02-12T23:19:15.163Z,101978.29
2023-02-12T23:21:43.821Z,101978.73
2023-02-12T23:24:14.136Z,101978.65
2023-02-12T23:26:42.604Z,101980.08
2023-02-12T23:29:11.170Z,101976.03
2023-02-12T23:31:41.629Z,101975.73
2023-02-12T23:34:10.733Z,101975.95
2023-02-12T23:36:39.449Z,101975.02
2023-02-12T23:39:09.783Z,101970.61
2023-02-12T23:41:40.811Z,101972.13
2023-02-12T23:44:09.757Z,101972.02
2023-02-12T23:46:38.169Z,101972.38
2023-02-12T23:49:06.754Z,101976.02
2023-02-12T23:51:35.260Z,101974.19
2023-02-12T23:54:03.929Z,101972.20
2023-02-12T23:56:32.316Z,101967.33
2023-02-12T23:59:01.815Z,101964.38
